createdAt,value
2017-09-12T00:00:25.357Z,99395.52
2017-09-12T00:02:53.645Z,99390.74
2017-09-12T00:05:21.956Z,99388.45
2017-09-12T00:07:51.037Z,99398.64
2017-09-12T00:10:19.328Z,99399.45
2017-09-12T00:12:47.625Z,99402.84
2017-09-12T00:15:16.676Z,99406.36
2017-09-12T00:17:44.980Z,99402.97
2017-09-12T00:20:13.269Z,99397.53
2017-09-12T00:22:42.329Z,99398.52
2017-09-12T00:25:10.616Z,99397.28
2017-09-12T00:27:38.937Z,99397.27
2017-09-12T00:30:07.226Z,99392.53
2017-09-12T00:32:35.533Z,99393.47
2017-09-12T00:35:04.585Z,99390.07
2017-09-12T00:37:32.893Z,99393.86
2017-09-12T00:40:01.181Z,99392.37
2017-09-12T00:42:29.489Z,99387.61
2017-09-12T00:44:57.794Z,99391.69
2017-09-12T00:47:26.086Z,99403.63
2017-09-12T00:49:54.376Z,99396.17
2017-09-12T00:52:22.665Z,99406.63
2017-09-12T00:54:50.965Z,99402.84
2017-09-12T00:57:19.256Z,99402.96
2017-09-12T00:59:48.322Z,99396.86
2017-09-12T01:02:16.622Z,99404.47
2017-09-12T01:04:44.921Z,99403.67
2017-09-12T01:07:13.213Z,99406.52
2017-09-12T01:09:41.541Z,99402.56
2017-09-12T01:12:09.829Z,99397.41
2017-09-12T01:14:38.122Z,99401.09
2017-09-12T01:17:07.189Z,99396.58
2017-09-12T01:19:35.481Z,99399.05
2017-09-12T01:22:04.549Z,99392.38
2017-09-12T01:24:32.848Z,99406.94
2017-09-12T01:27:01.148Z,99404.76
2017-09-12T01:29:30.214Z,99407.34
2017-09-12T01:31:59.277Z,99407.75
2017-09-12T01:34:27.561Z,99412.78
2017-09-12T01:36:57.201Z,99409.77
2017-09-12T01:39:26.265Z,99413.27
2017-09-12T01:41:54.582Z,99415.41
2017-09-12T01:44:23.638Z,99408.70
2017-09-12T01:46:51.930Z,99411.27
2017-09-12T01:49:20.229Z,99412.98
2017-09-12T01:51:49.309Z,99415.71
2017-09-12T01:54:17.610Z,99413.14
2017-09-12T01:56:46.669Z,99414.80
2017-09-12T01:59:14.972Z,99418.59
2017-09-12T02:01:44.025Z,99413.29
2017-09-12T02:04:12.334Z,99412.47
2017-09-12T02:06:40.627Z,99409.19
2017-09-12T02:09:09.697Z,99413.13
2017-09-12T02:11:37.987Z,99410.55
2017-09-12T02:14:07.065Z,99402.24
2017-09-12T02:16:35.362Z,99404.86
2017-09-12T02:19:04.430Z,99403.20
2017-09-12T02:21:32.725Z,99397.75
2017-09-12T02:24:01.017Z,99403.80
2017-09-12T02:26:30.093Z,99404.92
2017-09-12T02:28:58.390Z,99410.52
2017-09-12T02:31:27.460Z,99411.36
2017-09-12T02:33:55.757Z,99408.09
2017-09-12T02:36:24.865Z,99406.03
2017-09-12T02:38:53.982Z,99404.55
2017-09-12T02:41:22.273Z,99406.61
2017-09-12T02:43:50.570Z,99398.97
2017-09-12T02:46:18.873Z,99399.81
2017-09-12T02:48:47.957Z,99388.52
2017-09-12T02:51:16.266Z,99393.00
2017-09-12T02:53:44.573Z,99395.03
2017-09-12T02:56:12.870Z,99394.62
2017-09-12T02:58:41.181Z,99405.92
2017-09-12T03:01:10.242Z,99396.27
2017-09-12T03:03:38.557Z,99395.31
2017-09-12T03:06:07.631Z,99393.70
2017-09-12T03:08:35.930Z,99396.54
2017-09-12T03:11:05.001Z,99384.44
2017-09-12T03:13:33.298Z,99382.52
2017-09-12T03:16:02.374Z,99385.79
2017-09-12T03:18:30.666Z,99392.56
2017-09-12T03:20:59.761Z,99392.05
2017-09-12T03:23:28.834Z,99396.68
2017-09-12T03:25:57.131Z,99391.50
2017-09-12T03:28:26.202Z,99397.64
2017-09-12T03:30:54.518Z,99399.81
2017-09-12T03:33:23.597Z,99402.16
2017-09-12T03:35:52.664Z,99395.61
2017-09-12T03:38:20.971Z,99399.29
2017-09-12T03:40:50.034Z,99409.77
2017-09-12T03:43:18.395Z,99401.20
2017-09-12T03:45:46.691Z,99401.87
2017-09-12T03:48:15.002Z,99400.47
2017-09-12T03:50:44.057Z,99396.02
2017-09-12T03:53:12.411Z,99395.61
2017-09-12T03:55:40.708Z,99397.23
2017-09-12T03:58:09.010Z,99398.63
2017-09-12T04:00:37.312Z,99400.94
2017-09-12T04:03:06.443Z,99401.06
2017-09-12T04:05:34.755Z,99402.79
2017-09-12T04:08:03.052Z,99406.72
2017-09-12T04:10:32.126Z,99410.52
2017-09-12T04:13:00.422Z,99404.50
2017-09-12T04:15:29.496Z,99409.09
2017-09-12T04:17:57.789Z,99406.63
2017-09-12T04:20:26.118Z,99412.02
2017-09-12T04:22:54.425Z,99410.24
2017-09-12T04:25:22.727Z,99402.83
2017-09-12T04:27:51.813Z,99408.97
2017-09-12T04:30:20.117Z,99412.59
2017-09-12T04:32:49.200Z,99414.52
2017-09-12T04:35:18.280Z,99412.19
2017-09-12T04:37:46.622Z,99421.48
2017-09-12T04:40:14.918Z,99423.00
2017-09-12T04:42:43.269Z,99424.22
2017-09-12T04:45:11.557Z,99419.52
2017-09-12T04:47:39.898Z,99425.51
2017-09-12T04:50:08.193Z,99416.92
2017-09-12T04:52:36.482Z,99422.48
2017-09-12T04:55:04.782Z,99422.59
2017-09-12T04:57:33.073Z,99420.51
2017-09-12T05:00:01.377Z,99422.23
2017-09-12T05:02:30.442Z,99428.09
2017-09-12T05:04:58.753Z,99434.02
2017-09-12T05:07:27.813Z,99438.57
2017-09-12T05:09:56.155Z,99433.12
2017-09-12T05:12:24.524Z,99433.62
2017-09-12T05:14:52.814Z,99438.60
2017-09-12T05:17:21.125Z,99441.80
2017-09-12T05:19:49.414Z,99433.17
2017-09-12T05:22:18.488Z,99439.03
2017-09-12T05:24:46.821Z,99432.78
2017-09-12T05:27:15.174Z,99439.67
2017-09-12T05:29:44.246Z,99436.78
2017-09-12T05:32:12.541Z,99445.05
2017-09-12T05:34:41.606Z,99437.78
2017-09-12T05:37:09.918Z,99442.09
2017-09-12T05:39:38.307Z,99442.47
2017-09-12T05:42:07.373Z,99444.02
2017-09-12T05:44:35.706Z,99444.64
2017-09-12T05:47:03.998Z,99453.35
2017-09-12T05:49:32.304Z,99456.93
2017-09-12T05:52:00.614Z,99464.64
2017-09-12T05:54:28.901Z,99463.17
2017-09-12T05:56:57.210Z,99463.61
2017-09-12T05:59:25.514Z,99466.63
2017-09-12T06:01:53.842Z,99461.55
2017-09-12T06:04:22.141Z,99461.61
2017-09-12T06:06:50.446Z,99472.75
2017-09-12T06:09:18.754Z,99477.37
2017-09-12T06:11:47.053Z,99483.11
2017-09-12T06:14:15.363Z,99478.07
2017-09-12T06:16:43.673Z,99480.48
2017-09-12T06:19:12.761Z,99474.28
2017-09-12T06:21:41.834Z,99482.25
2017-09-12T06:24:10.170Z,99482.73
2017-09-12T06:26:38.476Z,99483.31
2017-09-12T06:29:06.790Z,99485.56
2017-09-12T06:31:35.873Z,99481.83
2017-09-12T06:34:04.495Z,99485.43
2017-09-12T06:36:32.809Z,99498.31
2017-09-12T06:39:01.793Z,99497.59
2017-09-12T06:41:30.107Z,99489.41
2017-09-12T06:43:58.427Z,99504.53
2017-09-12T06:46:26.737Z,99499.25
2017-09-12T06:48:55.039Z,99514.45
2017-09-12T06:51:23.338Z,99507.59
2017-09-12T06:53:51.630Z,99517.14
2017-09-12T06:56:19.945Z,99520.11
2017-09-12T06:58:49.022Z,99513.05
2017-09-12T07:01:17.330Z,99510.60
2017-09-12T07:03:45.655Z,99514.13
2017-09-12T07:06:13.969Z,99510.36
2017-09-12T07:08:42.277Z,99511.90
2017-09-12T07:11:11.350Z,99511.73
2017-09-12T07:13:39.654Z,99511.63
2017-09-12T07:16:08.717Z,99515.09
2017-09-12T07:18:37.025Z,99516.66
2017-09-12T07:21:06.085Z,99513.13
2017-09-12T07:23:34.418Z,99521.38
2017-09-12T07:26:02.727Z,99524.45
2017-09-12T07:28:31.021Z,99523.94
2017-09-12T07:30:59.326Z,99520.31
2017-09-12T07:33:28.393Z,99529.23
2017-09-12T07:35:56.902Z,99529.47
2017-09-12T07:38:25.978Z,99527.31
2017-09-12T07:40:54.294Z,99531.44
2017-09-12T07:43:22.615Z,99535.44
2017-09-12T07:45:50.938Z,99535.97
2017-09-12T07:48:20.011Z,99546.61
2017-09-12T07:50:48.318Z,99555.12
2017-09-12T07:53:17.389Z,99553.83
2017-09-12T07:55:45.677Z,99560.09
2017-09-12T07:58:14.750Z,99555.25
2017-09-12T08:00:43.070Z,99552.48
2017-09-12T08:03:11.390Z,99554.76
2017-09-12T08:05:39.699Z,99560.20
2017-09-12T08:08:08.778Z,99560.73
2017-09-12T08:10:37.065Z,99557.31
2017-09-12T08:13:05.374Z,99566.23
2017-09-12T08:15:33.666Z,99568.34
2017-09-12T08:18:01.966Z,99572.02
2017-09-12T08:20:30.268Z,99575.38
2017-09-12T08:22:58.553Z,99579.59
2017-09-12T08:25:26.856Z,99582.48
2017-09-12T08:27:55.167Z,99575.84
2017-09-12T08:30:23.491Z,99576.47
2017-09-12T08:32:52.562Z,99584.48
2017-09-12T08:35:20.878Z,99587.23
2017-09-12T08:37:49.179Z,99585.63
2017-09-12T08:40:17.496Z,99588.83
2017-09-12T08:42:45.790Z,99585.92
2017-09-12T08:45:14.878Z,99592.44
2017-09-12T08:47:43.173Z,99606.38
2017-09-12T08:50:11.474Z,99599.62
2017-09-12T08:52:39.985Z,99603.38
2017-09-12T08:55:08.365Z,99596.94
2017-09-12T08:57:36.745Z,99596.28
2017-09-12T09:00:05.041Z,99605.67
2017-09-12T09:02:33.345Z,99600.62
2017-09-12T09:05:02.405Z,99603.97
2017-09-12T09:07:30.775Z,99608.00
2017-09-12T09:09:59.146Z,99609.35
2017-09-12T09:12:27.450Z,99604.69
2017-09-12T09:14:55.741Z,99619.76
2017-09-12T09:17:24.834Z,99622.68
2017-09-12T09:19:53.893Z,99628.19
2017-09-12T09:22:22.185Z,99625.87
2017-09-12T09:24:50.494Z,99627.97
2017-09-12T09:27:19.578Z,99623.45
2017-09-12T09:29:47.886Z,99637.75
2017-09-12T09:32:16.193Z,99641.77
2017-09-12T09:34:44.498Z,99643.94
2017-09-12T09:37:12.795Z,99643.86
2017-09-12T09:39:41.903Z,99653.77
2017-09-12T09:42:10.204Z,99649.87
2017-09-12T09:44:38.497Z,99652.55
2017-09-12T09:47:06.806Z,99653.14
2017-09-12T09:49:35.103Z,99657.20
2017-09-12T09:52:04.166Z,99662.05
2017-09-12T09:54:32.470Z,99662.43
2017-09-12T09:57:01.537Z,99654.88
2017-09-12T09:59:29.835Z,99659.59
2017-09-12T10:01:58.907Z,99665.16
2017-09-12T10:04:27.193Z,99659.92
2017-09-12T10:06:55.831Z,99671.10
2017-09-12T10:09:24.122Z,99661.15
2017-09-12T10:11:52.426Z,99674.73
2017-09-12T10:14:20.722Z,99662.70
2017-09-12T10:16:49.802Z,99676.19
2017-09-12T10:19:18.098Z,99669.52
2017-09-12T10:21:47.198Z,99670.88
2017-09-12T10:24:16.262Z,99676.05
2017-09-12T10:26:44.577Z,99677.19
2017-09-12T10:29:12.878Z,99679.05
2017-09-12T10:31:41.166Z,99676.65
2017-09-12T10:34:09.470Z,99670.75
2017-09-12T10:36:37.898Z,99676.95
2017-09-12T10:39:06.203Z,99676.23
2017-09-12T10:41:34.515Z,99681.30
2017-09-12T10:44:03.603Z,99684.05
2017-09-12T10:46:31.924Z,99691.69
2017-09-12T10:49:00.265Z,99694.42
2017-09-12T10:51:28.553Z,99693.25
2017-09-12T10:53:57.614Z,99698.77
2017-09-12T10:56:25.929Z,99695.65
2017-09-12T10:58:54.990Z,99701.52
2017-09-12T11:01:24.061Z,99706.64
2017-09-12T11:03:52.357Z,99704.34
2017-09-12T11:06:20.654Z,99706.55
2017-09-12T11:08:48.958Z,99707.16
2017-09-12T11:11:18.034Z,99709.23
2017-09-12T11:13:47.110Z,99714.37
2017-09-12T11:16:15.435Z,99711.73
2017-09-12T11:18:43.738Z,99712.11
2017-09-12T11:21:12.029Z,99712.66
2017-09-12T11:23:40.333Z,99728.50
2017-09-12T11:26:08.629Z,99724.53
2017-09-12T11:28:37.694Z,99718.55
2017-09-12T11:31:05.993Z,99723.95
2017-09-12T11:33:35.057Z,99725.20
2017-09-12T11:36:03.354Z,99730.25
2017-09-12T11:38:31.690Z,99728.69
2017-09-12T11:41:00.782Z,99730.84
2017-09-12T11:43:29.086Z,99726.15
2017-09-12T11:45:57.397Z,99725.96
2017-09-12T11:48:26.458Z,99727.73
2017-09-12T11:50:54.769Z,99729.98
2017-09-12T11:53:23.826Z,99731.70
2017-09-12T11:55:52.143Z,99732.70
2017-09-12T11:58:21.200Z,99737.00
2017-09-12T12:00:49.525Z,99735.09
2017-09-12T12:03:17.828Z,99720.27
2017-09-12T12:05:46.118Z,99721.25
2017-09-12T12:08:14.430Z,99721.52
2017-09-12T12:10:42.726Z,99731.06
2017-09-12T12:13:11.804Z,99736.42
2017-09-12T12:15:40.107Z,99737.82
2017-09-12T12:18:08.405Z,99731.94
2017-09-12T12:20:36.697Z,99741.80
2017-09-12T12:23:05.006Z,99743.86
2017-09-12T12:25:33.306Z,99740.38
2017-09-12T12:28:02.450Z,99750.44
2017-09-12T12:30:30.750Z,99748.50
2017-09-12T12:32:59.080Z,99744.14
2017-09-12T12:35:27.382Z,99748.70
2017-09-12T12:37:55.677Z,99750.96
2017-09-12T12:40:29.795Z,99755.13
2017-09-12T12:42:58.090Z,99755.40
2017-09-12T12:45:26.436Z,99761.91
2017-09-12T12:47:54.749Z,99759.20
2017-09-12T12:50:23.817Z,99755.58
2017-09-12T12:52:52.119Z,99757.86
2017-09-12T12:55:21.210Z,99757.55
2017-09-12T12:57:50.274Z,99757.25
2017-09-12T13:00:18.578Z,99766.14
2017-09-12T13:02:46.885Z,99762.13
2017-09-12T13:05:15.190Z,99753.81
2017-09-12T13:07:43.511Z,99750.43
2017-09-12T13:10:12.587Z,99755.92
2017-09-12T13:12:40.897Z,99751.22
2017-09-12T13:15:09.963Z,99748.41
2017-09-12T13:17:38.284Z,99759.52
2017-09-12T13:20:06.577Z,99757.69
2017-09-12T13:22:34.894Z,99764.63
2017-09-12T13:25:03.193Z,99773.79
2017-09-12T13:27:32.253Z,99764.29
2017-09-12T13:30:00.562Z,99762.42
2017-09-12T13:32:29.622Z,99769.46
2017-09-12T13:34:57.941Z,99769.09
2017-09-12T13:37:27.001Z,99776.05
2017-09-12T13:39:55.297Z,99772.65
2017-09-12T13:42:24.379Z,99790.45
2017-09-12T13:44:52.710Z,99784.21
2017-09-12T13:47:21.009Z,99791.61
2017-09-12T13:49:49.305Z,99797.20
2017-09-12T13:52:17.607Z,99792.78
2017-09-12T13:54:46.678Z,99789.13
2017-09-12T13:57:14.993Z,99790.28
2017-09-12T13:59:44.058Z,99799.38
2017-09-12T14:02:12.374Z,99791.08
2017-09-12T14:04:40.670Z,99797.64
2017-09-12T14:07:08.974Z,99800.59
2017-09-12T14:09:37.271Z,99802.92
2017-09-12T14:12:05.610Z,99796.17
2017-09-12T14:14:33.905Z,99806.41
2017-09-12T14:17:02.214Z,99805.03
2017-09-12T14:19:31.278Z,99802.66
2017-09-12T14:21:59.587Z,99807.53
2017-09-12T14:24:28.649Z,99807.22
2017-09-12T14:26:57.817Z,99810.98
2017-09-12T14:29:26.117Z,99811.86
2017-09-12T14:31:54.429Z,99822.80
2017-09-12T14:34:23.528Z,99818.73
2017-09-12T14:36:52.585Z,99822.03
2017-09-12T14:39:20.881Z,99820.23
2017-09-12T14:41:49.194Z,99820.30
2017-09-12T14:44:18.254Z,99819.42
2017-09-12T14:46:46.585Z,99831.47
2017-09-12T14:49:14.877Z,99824.65
2017-09-12T14:51:43.182Z,99829.73
2017-09-12T14:54:11.493Z,99832.95
2017-09-12T14:56:40.594Z,99841.42
2017-09-12T14:59:08.890Z,99830.03
2017-09-12T15:01:37.185Z,99832.59
2017-09-12T15:04:05.485Z,99829.88
2017-09-12T15:06:33.785Z,99826.77
2017-09-12T15:09:02.855Z,99841.53
2017-09-12T15:11:31.167Z,99851.77
2017-09-12T15:14:00.244Z,99853.78
2017-09-12T15:16:28.545Z,99851.02
2017-09-12T15:18:56.845Z,99853.85
2017-09-12T15:21:25.159Z,99860.42
2017-09-12T15:23:53.478Z,99865.64
2017-09-12T15:26:21.775Z,99859.75
2017-09-12T15:28:50.069Z,99860.12
2017-09-12T15:31:18.376Z,99869.70
2017-09-12T15:33:46.681Z,99865.06
2017-09-12T15:36:15.751Z,99868.98
2017-09-12T15:38:44.061Z,99860.78
2017-09-12T15:41:12.375Z,99864.18
2017-09-12T15:43:40.666Z,99870.54
2017-09-12T15:46:08.975Z,99866.94
2017-09-12T15:48:38.038Z,99866.28
2017-09-12T15:51:06.361Z,99867.89
2017-09-12T15:53:34.672Z,99866.09
2017-09-12T15:56:02.965Z,99864.19
2017-09-12T15:58:31.279Z,99865.93
2017-09-12T16:01:00.342Z,99868.30
2017-09-12T16:03:28.649Z,99871.73
2017-09-12T16:05:56.946Z,99879.26
2017-09-12T16:08:25.254Z,99880.30
2017-09-12T16:10:53.561Z,99870.17
2017-09-12T16:13:21.884Z,99879.13
2017-09-12T16:15:50.177Z,99888.75
2017-09-12T16:18:18.474Z,99887.27
2017-09-12T16:20:46.778Z,99889.63
2017-09-12T16:23:15.074Z,99889.27
2017-09-12T16:25:43.415Z,99895.27
2017-09-12T16:28:11.755Z,99886.02
2017-09-12T16:30:40.074Z,99882.96
2017-09-12T16:33:08.374Z,99890.77
2017-09-12T16:35:37.494Z,99891.17
2017-09-12T16:38:05.849Z,99895.69
2017-09-12T16:40:34.903Z,99885.75
2017-09-12T16:43:03.217Z,99886.06
2017-09-12T16:45:32.291Z,99894.55
2017-09-12T16:48:00.626Z,99905.37
2017-09-12T16:50:28.926Z,99913.66
2017-09-12T16:52:57.250Z,99947.09
2017-09-12T16:55:26.309Z,99995.67
2017-09-12T16:57:54.633Z,100009.63
2017-09-12T17:00:23.711Z,100018.55
2017-09-12T17:02:52.782Z,100020.61
2017-09-12T17:05:21.096Z,100011.17
2017-09-12T17:07:49.422Z,99986.74
2017-09-12T17:10:17.730Z,99973.62
2017-09-12T17:12:46.035Z,99995.22
2017-09-12T17:15:14.370Z,99995.88
2017-09-12T17:17:42.706Z,99994.94
2017-09-12T17:20:11.005Z,100006.01
2017-09-12T17:22:39.317Z,100005.98
2017-09-12T17:25:07.621Z,100024.56
2017-09-12T17:27:35.934Z,100025.94
2017-09-12T17:30:04.233Z,100021.97
2017-09-12T17:32:32.541Z,100014.33
2017-09-12T17:35:01.610Z,100014.59
2017-09-12T17:37:29.922Z,100011.59
2017-09-12T17:39:58.218Z,100012.12
2017-09-12T17:42:26.529Z,100025.50
2017-09-12T17:44:54.831Z,100032.45
2017-09-12T17:47:23.186Z,100022.30
2017-09-12T17:49:51.501Z,100026.48
2017-09-12T17:52:20.562Z,100043.49
2017-09-12T17:54:48.871Z,100048.34
2017-09-12T17:57:17.940Z,100051.72
2017-09-12T17:59:46.257Z,100049.05
2017-09-12T18:02:14.561Z,100046.44
2017-09-12T18:04:42.894Z,100051.45
2017-09-12T18:07:11.953Z,100050.64
2017-09-12T18:09:40.258Z,100053.79
2017-09-12T18:12:09.362Z,100057.03
2017-09-12T18:14:38.434Z,100058.53
2017-09-12T18:17:06.764Z,100062.18
2017-09-12T18:19:35.077Z,100057.17
2017-09-12T18:22:03.386Z,100064.48
2017-09-12T18:24:32.469Z,100060.94
2017-09-12T18:27:00.778Z,100062.48
2017-09-12T18:29:29.097Z,100058.54
2017-09-12T18:31:57.401Z,100061.39
2017-09-12T18:34:25.699Z,100061.51
2017-09-12T18:36:54.946Z,100053.23
2017-09-12T18:39:23.268Z,100062.23
2017-09-12T18:41:51.589Z,100068.41
2017-09-12T18:44:19.957Z,100071.03
2017-09-12T18:46:48.273Z,100069.10
2017-09-12T18:49:16.587Z,100071.70
2017-09-12T18:51:45.651Z,100073.03
2017-09-12T18:54:13.975Z,100069.28
2017-09-12T18:56:42.283Z,100069.54
2017-09-12T18:59:10.628Z,100077.16
2017-09-12T19:01:38.922Z,100079.98
2017-09-12T19:04:07.299Z,100077.36
2017-09-12T19:06:35.601Z,100082.80
2017-09-12T19:09:03.904Z,100069.78
2017-09-12T19:11:32.216Z,100079.25
2017-09-12T19:14:00.513Z,100074.90
2017-09-12T19:16:28.822Z,100074.97
2017-09-12T19:18:57.122Z,100072.17
2017-09-12T19:21:26.213Z,100066.46
2017-09-12T19:23:55.280Z,100062.08
2017-09-12T19:26:23.573Z,100064.23
2017-09-12T19:28:51.887Z,100068.27
2017-09-12T19:31:20.194Z,100075.41
2017-09-12T19:33:48.501Z,100076.61
2017-09-12T19:36:16.803Z,100075.46
2017-09-12T19:38:45.885Z,100077.34
2017-09-12T19:41:14.193Z,100083.41
2017-09-12T19:43:42.503Z,100084.58
2017-09-12T19:46:10.803Z,100080.80
2017-09-12T19:48:39.138Z,100087.05
2017-09-12T19:51:07.485Z,100085.56
2017-09-12T19:53:36.608Z,100092.23
2017-09-12T19:56:04.969Z,100092.66
2017-09-12T19:58:33.278Z,100093.56
2017-09-12T20:01:01.637Z,100098.71
2017-09-12T20:03:29.951Z,100099.88
2017-09-12T20:05:58.273Z,100105.84
2017-09-12T20:08:26.589Z,100098.86
2017-09-12T20:10:54.919Z,100096.85
2017-09-12T20:13:23.979Z,100094.41
2017-09-12T20:15:52.291Z,100105.02
2017-09-12T20:18:20.606Z,100095.49
2017-09-12T20:20:48.905Z,100096.09
2017-09-12T20:23:17.972Z,100105.39
2017-09-12T20:25:46.279Z,100103.70
2017-09-12T20:28:15.375Z,100108.70
2017-09-12T20:30:44.433Z,100109.28
2017-09-12T20:33:13.510Z,100105.13
2017-09-12T20:35:41.856Z,100113.09
2017-09-12T20:38:10.202Z,100119.90
2017-09-12T20:40:38.511Z,100117.04
2017-09-12T20:43:06.819Z,100122.59
2017-09-12T20:45:35.129Z,100127.79
2017-09-12T20:48:03.425Z,100125.68
2017-09-12T20:50:32.505Z,100123.44
2017-09-12T20:53:00.812Z,100124.25
2017-09-12T20:55:29.126Z,100132.48
2017-09-12T20:57:57.431Z,100128.66
2017-09-12T21:00:25.771Z,100124.58
2017-09-12T21:02:54.064Z,100117.52
2017-09-12T21:05:22.362Z,100120.41
2017-09-12T21:07:50.675Z,100124.83
2017-09-12T21:10:18.983Z,100130.05
2017-09-12T21:12:47.293Z,100127.84
2017-09-12T21:15:15.602Z,100122.61
2017-09-12T21:17:43.922Z,100126.11
2017-09-12T21:20:12.221Z,100127.67
2017-09-12T21:22:40.607Z,100127.99
2017-09-12T21:25:08.919Z,100132.85
2017-09-12T21:27:37.217Z,100122.66
2017-09-12T21:30:05.534Z,100126.56
2017-09-12T21:32:33.842Z,100132.40
2017-09-12T21:35:02.921Z,100130.45
2017-09-12T21:37:31.997Z,100130.59
2017-09-12T21:40:00.309Z,100134.16
2017-09-12T21:42:29.378Z,100134.72
2017-09-12T21:44:57.686Z,100129.00
2017-09-12T21:47:25.987Z,100137.03
2017-09-12T21:49:54.325Z,100133.76
2017-09-12T21:52:23.393Z,100136.64
2017-09-12T21:54:51.685Z,100137.28
2017-09-12T21:57:19.998Z,100139.77
2017-09-12T21:59:48.298Z,100146.70
2017-09-12T22:02:16.616Z,100146.39
2017-09-12T22:04:44.918Z,100155.55
2017-09-12T22:07:13.243Z,100148.08
2017-09-12T22:09:41.550Z,100144.41
2017-09-12T22:12:09.873Z,100155.00
2017-09-12T22:14:38.175Z,100145.45
2017-09-12T22:17:06.481Z,100149.66
2017-09-12T22:19:34.799Z,100146.13
2017-09-12T22:22:03.102Z,100150.08
2017-09-12T22:24:31.422Z,100151.07
2017-09-12T22:27:00.490Z,100149.61
2017-09-12T22:29:28.805Z,100157.62
2017-09-12T22:31:57.861Z,100151.38
2017-09-12T22:34:26.166Z,100145.99
2017-09-12T22:36:55.232Z,100149.75
2017-09-12T22:39:23.543Z,100148.80
2017-09-12T22:41:52.623Z,100153.25
2017-09-12T22:44:20.941Z,100144.14
2017-09-12T22:46:49.237Z,100144.52
2017-09-12T22:49:17.538Z,100140.08
2017-09-12T22:51:45.841Z,100138.18
2017-09-12T22:54:14.906Z,100136.09
2017-09-12T22:56:43.232Z,100133.14
2017-09-12T22:59:11.534Z,100128.08
2017-09-12T23:01:39.842Z,100126.58
2017-09-12T23:04:08.150Z,100134.73
2017-09-12T23:06:37.234Z,100129.12
2017-09-12T23:09:05.551Z,100131.39
2017-09-12T23:11:33.858Z,100129.39
2017-09-12T23:14:02.179Z,100132.88
2017-09-12T23:16:31.245Z,100131.47
2017-09-12T23:18:59.558Z,100125.67
2017-09-12T23:21:27.868Z,100120.28
2017-09-12T23:23:56.182Z,100119.69
2017-09-12T23:26:24.476Z,100121.50
2017-09-12T23:28:53.572Z,100120.72
2017-09-12T23:31:22.633Z,100104.69
2017-09-12T23:33:51.702Z,100102.51
2017-09-12T23:36:20.010Z,100100.74
2017-09-12T23:38:48.314Z,100094.72
2017-09-12T23:41:17.390Z,100082.62
2017-09-12T23:43:45.697Z,100078.86
2017-09-12T23:46:14.768Z,100076.92
2017-09-12T23:48:43.063Z,100078.00
2017-09-12T23:51:12.144Z,100081.44
2017-09-12T23:53:40.465Z,100077.83
2017-09-12T23:56:08.769Z,100086.17
2017-09-12T23:58:37.088Z,100087.55
